Time;durP1;ratioP1;P1;durP2;ratioP2;P2;SDS_P1;SDS_P2;PMS_P1;PMS_P2;Temp;Humidity;BMP_temperature;BMP_pressure;BME280_temperature;BME280_humidity;BME280_pressure;Samples;Min_cycle;Max_cycle;Signal;HPM_P1;HPM_P2
2023/03/13 00:01:38;;;;;;;0.00;0.00;;;6.70;99.90;;;;;;5054416;28;20028;-73
2023/03/13 00:04:04;;;;;;;0.10;0.10;;;6.80;99.90;;;;;;5054546;28;20478;-73
2023/03/13 00:06:32;;;;;;;0.00;0.00;;;6.80;99.90;;;;;;5054554;28;20032;-73
2023/03/13 00:08:59;;;;;;;0.00;0.00;;;6.80;99.90;;;;;;5054297;28;20029;-73
2023/03/13 00:11:25;;;;;;;0.10;0.10;;;6.90;99.90;;;;;;5054228;28;20090;-73
2023/03/13 00:13:56;;;;;;;0.03;0.03;;;6.90;99.90;;;;;;5054140;28;20036;-73
2023/03/13 00:16:22;;;;;;;0.10;0.10;;;6.90;99.90;;;;;;5054057;28;20036;-73
2023/03/13 00:18:50;;;;;;;0.08;0.08;;;6.90;99.90;;;;;;5054144;28;20025;-73
2023/03/13 00:21:17;;;;;;;0.10;0.10;;;6.90;99.90;;;;;;5054033;28;20036;-73
2023/03/13 00:23:43;;;;;;;0.10;0.10;;;6.90;99.90;;;;;;5054260;28;20071;-73
2023/03/13 00:26:11;;;;;;;0.00;0.00;;;7.00;99.90;;;;;;5054206;28;20029;-73
2023/03/13 00:28:39;;;;;;;0.10;0.10;;;7.00;99.90;;;;;;5053932;28;20133;-73
2023/03/13 00:31:15;;;;;;;0.10;0.10;;;6.90;99.90;;;;;;5053842;28;20060;-73
2023/03/13 00:33:46;;;;;;;0.10;0.10;;;6.90;99.90;;;;;;5054325;28;20124;-73
2023/03/13 00:36:16;;;;;;;0.10;0.10;;;6.90;99.90;;;;;;5053718;28;20489;-73
2023/03/13 00:38:42;;;;;;;0.10;0.10;;;7.00;99.90;;;;;;5053993;28;20032;-73
2023/03/13 00:41:13;;;;;;;0.10;0.10;;;7.00;99.90;;;;;;5053951;28;20017;-73
2023/03/13 00:43:40;;;;;;;0.10;0.10;;;7.00;99.90;;;;;;5053927;28;20052;-73
2023/03/13 00:46:06;;;;;;;0.10;0.10;;;7.00;99.90;;;;;;5053518;28;20124;-73
2023/03/13 00:48:32;;;;;;;0.10;0.10;;;6.90;99.90;;;;;;5053556;28;20025;-73
2023/03/13 00:50:58;;;;;;;0.05;0.05;;;6.90;99.90;;;;;;5053792;28;20025;-73
2023/03/13 00:53:24;;;;;;;0.10;0.10;;;7.00;99.90;;;;;;5053398;28;20104;-73
2023/03/13 00:56:01;;;;;;;0.08;0.08;;;7.00;99.90;;;;;;5053359;28;20466;-73
2023/03/13 00:58:29;;;;;;;0.00;0.00;;;7.00;99.90;;;;;;5053012;28;20036;-73
2023/03/13 01:00:55;;;;;;;0.10;0.10;;;7.00;99.90;;;;;;5053518;28;20040;-73
2023/03/13 01:03:24;;;;;;;0.10;0.10;;;7.00;99.90;;;;;;5053321;28;20470;-73
2023/03/13 01:05:57;;;;;;;0.10;0.10;;;7.10;99.90;;;;;;5053232;28;20075;-73
2023/03/13 01:08:22;;;;;;;0.10;0.10;;;7.00;99.90;;;;;;5035429;28;20509;-73
2023/03/13 01:10:48;;;;;;;0.10;0.10;;;7.10;99.90;;;;;;5053219;28;20037;-73
2023/03/13 01:13:13;;;;;;;0.10;0.10;;;7.10;99.90;;;;;;5053155;28;20025;-73
2023/03/13 01:15:39;;;;;;;0.10;0.10;;;7.20;99.90;;;;;;5053412;28;20424;-73
2023/03/13 01:18:04;;;;;;;0.10;0.10;;;7.20;99.90;;;;;;5035325;28;20017;-73
2023/03/13 01:20:30;;;;;;;0.10;0.10;;;7.30;99.90;;;;;;5053109;28;20036;-73
2023/03/13 01:22:56;;;;;;;0.10;0.10;;;7.30;99.90;;;;;;5053070;28;20021;-73
2023/03/13 01:25:21;;;;;;;0.05;0.05;;;7.30;99.90;;;;;;5052979;28;20025;-73
2023/03/13 01:27:47;;;;;;;0.10;0.10;;;7.30;99.90;;;;;;5053054;28;20067;-73
2023/03/13 01:30:12;;;;;;;0.10;0.10;;;7.30;99.90;;;;;;5053535;28;20029;-73
2023/03/13 01:32:38;;;;;;;0.10;0.10;;;7.30;99.90;;;;;;5053217;28;20102;-73
2023/03/13 01:35:04;;;;;;;0.10;0.10;;;7.30;99.90;;;;;;5052836;28;20033;-73
2023/03/13 01:37:29;;;;;;;0.08;0.08;;;7.30;99.90;;;;;;5053503;28;20017;-73
2023/03/13 01:39:55;;;;;;;0.10;0.10;;;7.30;99.90;;;;;;5052920;28;20092;-73
2023/03/13 01:42:20;;;;;;;0.10;0.10;;;7.30;99.90;;;;;;5052866;28;20060;-73
2023/03/13 01:44:52;;;;;;;0.10;0.10;;;7.30;99.90;;;;;;5053072;28;20065;-73
2023/03/13 01:47:17;;;;;;;0.10;0.10;;;7.30;99.90;;;;;;5053123;28;20029;-73
2023/03/13 01:49:44;;;;;;;0.05;0.05;;;7.30;99.90;;;;;;5053064;28;20048;-73
2023/03/13 01:52:18;;;;;;;0.10;0.10;;;7.30;99.90;;;;;;5052815;28;20029;-73
2023/03/13 01:54:51;;;;;;;0.10;0.10;;;7.30;99.90;;;;;;5052553;28;20074;-73
2023/03/13 01:57:34;;;;;;;0.10;0.10;;;7.20;99.90;;;;;;5053089;28;20021;-73
2023/03/13 02:00:12;;;;;;;0.10;0.10;;;7.20;99.90;;;;;;5052971;28;20104;-73
2023/03/13 02:02:41;;;;;;;0.10;0.10;;;7.10;99.90;;;;;;5053015;28;20025;-73
2023/03/13 02:05:07;;;;;;;0.10;0.10;;;7.10;99.90;;;;;;5052591;28;20502;-73
2023/03/13 02:07:41;;;;;;;0.08;0.08;;;7.10;99.90;;;;;;5052630;28;20036;-73
2023/03/13 02:10:08;;;;;;;0.10;0.10;;;7.00;99.90;;;;;;5054377;28;20095;-73
2023/03/13 02:12:37;;;;;;;0.03;0.03;;;7.00;99.90;;;;;;5056527;28;20029;-73
2023/03/13 02:15:18;;;;;;;0.10;0.10;;;6.90;99.90;;;;;;5056546;28;20078;-73
2023/03/13 02:17:46;;;;;;;0.10;0.10;;;6.90;99.90;;;;;;5056417;28;20036;-73
2023/03/13 02:20:14;;;;;;;0.10;0.10;;;6.90;99.90;;;;;;5056373;28;20029;-73
2023/03/13 02:23:09;;;;;;;0.10;0.10;;;6.80;99.90;;;;;;5056198;28;20033;-73
2023/03/13 02:25:53;;;;;;;0.10;0.10;;;6.80;99.90;;;;;;5056542;28;20025;-73
2023/03/13 02:28:32;;;;;;;0.10;0.10;;;6.80;99.90;;;;;;5056243;28;20033;-73
2023/03/13 02:30:59;;;;;;;0.10;0.10;;;6.80;99.90;;;;;;5056221;28;20028;-73
2023/03/13 02:33:29;;;;;;;0.00;0.00;;;6.70;99.90;;;;;;5056053;28;20078;-73
2023/03/13 02:35:54;;;;;;;0.10;0.10;;;6.80;99.90;;;;;;5056046;28;20021;-73
2023/03/13 02:38:24;;;;;;;0.10;0.10;;;6.80;99.90;;;;;;5055942;28;20024;-73
2023/03/13 02:40:51;;;;;;;0.00;0.00;;;6.70;99.90;;;;;;5056029;28;20021;-73
2023/03/13 02:43:29;;;;;;;0.10;0.10;;;6.70;99.90;;;;;;5056183;28;20029;-72
2023/03/13 02:46:11;;;;;;;0.10;0.10;;;6.70;99.90;;;;;;5055835;28;20024;-73
2023/03/13 02:48:40;;;;;;;0.00;0.00;;;6.80;99.90;;;;;;5055848;28;20398;-73
2023/03/13 02:51:31;;;;;;;0.10;0.10;;;6.80;99.90;;;;;;5055687;28;20036;-73
2023/03/13 02:54:02;;;;;;;0.03;0.03;;;6.80;99.90;;;;;;5041425;28;20060;-73
2023/03/13 02:56:31;;;;;;;0.10;0.10;;;6.80;99.90;;;;;;5055601;28;20036;-72
2023/03/13 02:58:56;;;;;;;0.05;0.05;;;6.90;99.90;;;;;;5056177;28;20467;-72
2023/03/13 03:01:22;;;;;;;0.00;0.00;;;6.90;99.90;;;;;;5055602;28;20021;-72
2023/03/13 03:03:47;;;;;;;0.00;0.00;;;6.90;99.90;;;;;;5055572;28;20025;-72
2023/03/13 03:06:13;;;;;;;0.00;0.00;;;6.90;99.90;;;;;;5055478;28;20040;-72
2023/03/13 03:08:40;;;;;;;0.00;0.00;;;6.90;99.90;;;;;;5055770;28;20021;-72
2023/03/13 03:11:06;;;;;;;0.00;0.00;;;6.90;99.90;;;;;;5055452;28;20029;-71
2023/03/13 03:13:32;;;;;;;0.00;0.00;;;6.90;99.90;;;;;;5055305;28;20029;-72
2023/03/13 03:15:58;;;;;;;0.00;0.00;;;6.90;99.90;;;;;;5055296;28;20021;-72
2023/03/13 03:18:23;;;;;;;0.00;0.00;;;7.00;99.90;;;;;;5037504;28;20013;-72
2023/03/13 03:20:49;;;;;;;0.00;0.00;;;7.00;99.90;;;;;;5055431;28;20025;-72
2023/03/13 03:23:14;;;;;;;0.05;0.05;;;7.00;99.90;;;;;;5054648;28;20040;-72
2023/03/13 03:25:40;;;;;;;0.00;0.00;;;7.00;99.90;;;;;;5055110;28;20029;-72
2023/03/13 03:28:05;;;;;;;0.10;0.10;;;7.10;99.90;;;;;;5055103;28;20032;-71
2023/03/13 03:30:31;;;;;;;0.10;0.10;;;7.10;99.90;;;;;;5055249;28;20029;-71
2023/03/13 03:32:56;;;;;;;0.00;0.00;;;7.10;99.90;;;;;;5055046;28;20029;-71
2023/03/13 03:35:22;;;;;;;0.00;0.00;;;7.10;99.90;;;;;;5055125;28;20029;-72
2023/03/13 03:37:47;;;;;;;0.00;0.00;;;7.10;99.90;;;;;;5054989;28;20060;-71
2023/03/13 03:40:13;;;;;;;0.00;0.00;;;7.10;99.90;;;;;;5054929;28;20021;-71
2023/03/13 03:42:38;;;;;;;0.00;0.00;;;7.20;99.90;;;;;;5054884;28;20364;-71
2023/03/13 03:45:04;;;;;;;0.10;0.10;;;7.20;99.90;;;;;;5054728;28;20071;-71
2023/03/13 03:47:30;;;;;;;0.00;0.00;;;7.20;99.90;;;;;;5054767;28;20032;-71
2023/03/13 03:49:55;;;;;;;0.00;0.00;;;7.20;99.90;;;;;;5055003;28;20389;-72
2023/03/13 03:52:21;;;;;;;0.00;0.00;;;7.30;99.90;;;;;;5054657;28;20516;-71
2023/03/13 03:54:46;;;;;;;0.00;0.00;;;7.30;99.90;;;;;;5054535;28;20037;-71
2023/03/13 03:57:12;;;;;;;0.00;0.00;;;7.30;99.90;;;;;;5077687;22;20403;-74
2023/03/13 03:59:37;;;;;;;0.00;0.00;;;7.30;99.90;;;;;;5054478;28;20025;-73
2023/03/13 04:02:03;;;;;;;0.00;0.00;;;7.30;99.90;;;;;;5054997;28;20029;-73
2023/03/13 04:04:28;;;;;;;0.00;0.00;;;7.40;99.90;;;;;;5054956;28;20071;-74
2023/03/13 04:06:54;;;;;;;0.00;0.00;;;7.40;99.90;;;;;;5054610;28;20029;-73
2023/03/13 04:09:19;;;;;;;0.10;0.10;;;7.40;99.90;;;;;;5054353;28;20021;-74
2023/03/13 04:11:45;;;;;;;0.00;0.00;;;7.40;99.90;;;;;;5054518;28;20371;-74
2023/03/13 04:14:11;;;;;;;0.10;0.10;;;7.40;99.90;;;;;;5054111;28;20494;-74
2023/03/13 04:16:36;;;;;;;0.00;0.00;;;7.40;99.90;;;;;;5054201;28;20413;-74
2023/03/13 04:19:02;;;;;;;0.00;0.00;;;7.40;99.90;;;;;;5054163;28;20029;-74
2023/03/13 04:21:27;;;;;;;0.00;0.00;;;7.40;99.90;;;;;;5054375;28;20029;-74
2023/03/13 04:23:53;;;;;;;0.00;0.00;;;7.40;99.90;;;;;;5054319;28;20075;-74
2023/03/13 04:26:18;;;;;;;0.00;0.00;;;7.40;99.90;;;;;;5053973;28;20021;-74
2023/03/13 04:28:44;;;;;;;0.10;0.10;;;7.40;99.90;;;;;;5054463;28;20479;-74
2023/03/13 04:31:09;;;;;;;0.00;0.00;;;7.40;99.90;;;;;;5036036;28;20021;-74
2023/03/13 04:33:35;;;;;;;0.00;0.00;;;7.40;99.90;;;;;;5052897;28;20036;-74
2023/03/13 04:36:01;;;;;;;0.00;0.00;;;7.40;99.90;;;;;;5053944;28;20021;-74
2023/03/13 04:38:27;;;;;;;0.00;0.00;;;7.40;99.90;;;;;;5053770;28;20116;-74
2023/03/13 04:40:52;;;;;;;0.10;0.10;;;7.40;99.90;;;;;;5035919;28;20063;-73
2023/03/13 04:43:18;;;;;;;0.00;0.00;;;7.40;99.90;;;;;;5053656;28;20035;-73
2023/03/13 04:45:43;;;;;;;0.00;0.00;;;7.50;99.90;;;;;;5053576;28;20024;-73
2023/03/13 04:48:09;;;;;;;0.00;0.00;;;7.50;99.90;;;;;;5035808;28;20032;-73
2023/03/13 04:50:34;;;;;;;0.05;0.05;;;7.50;99.90;;;;;;5053496;28;20559;-73
2023/03/13 04:53:00;;;;;;;0.00;0.00;;;7.50;99.90;;;;;;5053792;28;20032;-73
2023/03/13 04:55:25;;;;;;;0.00;0.00;;;7.50;99.90;;;;;;5053217;28;20482;-73
2023/03/13 04:57:51;;;;;;;0.00;0.00;;;7.50;99.90;;;;;;5053756;28;20028;-73
2023/03/13 05:00:17;;;;;;;0.00;0.00;;;7.60;99.90;;;;;;5053435;28;20064;-73
2023/03/13 05:02:42;;;;;;;0.08;0.08;;;7.60;99.90;;;;;;5035690;28;20028;-73
2023/03/13 05:05:08;;;;;;;0.00;0.00;;;7.60;99.90;;;;;;5053546;28;20557;-73
2023/03/13 05:07:33;;;;;;;0.00;0.00;;;7.60;99.90;;;;;;5053327;28;20029;-73
2023/03/13 05:09:59;;;;;;;0.10;0.10;;;7.70;99.90;;;;;;5053518;28;20063;-73
2023/03/13 05:12:24;;;;;;;0.00;0.00;;;7.70;99.90;;;;;;5053491;28;20107;-73
2023/03/13 05:14:51;;;;;;;0.00;0.00;;;7.70;99.90;;;;;;5035303;28;20498;-73
2023/03/13 05:17:16;;;;;;;0.00;0.00;;;7.70;99.90;;;;;;5035225;28;20021;-73
2023/03/13 05:19:42;;;;;;;0.10;0.10;;;7.70;99.90;;;;;;5053156;28;20094;-73
2023/03/13 05:22:08;;;;;;;0.00;0.00;;;7.70;99.90;;;;;;5035313;28;20517;-72
2023/03/13 05:24:33;;;;;;;0.10;0.10;;;7.80;99.90;;;;;;5053017;28;20552;-73
2023/03/13 05:26:59;;;;;;;0.10;0.10;;;7.70;99.90;;;;;;5053058;28;20033;-73
2023/03/13 05:29:25;;;;;;;0.00;0.00;;;7.70;99.90;;;;;;5053054;28;20453;-73
2023/03/13 05:31:51;;;;;;;0.10;0.10;;;7.80;99.90;;;;;;5052977;28;20108;-73
2023/03/13 05:34:16;;;;;;;0.00;0.00;;;7.80;99.90;;;;;;5053432;28;20111;-73
2023/03/13 05:36:42;;;;;;;0.00;0.00;;;7.80;99.90;;;;;;5052874;28;20068;-73
2023/03/13 05:39:07;;;;;;;0.10;0.10;;;7.80;99.90;;;;;;5053496;28;20028;-73
2023/03/13 05:41:33;;;;;;;0.00;0.00;;;7.80;99.90;;;;;;5035007;28;20017;-73
2023/03/13 05:43:58;;;;;;;0.00;0.00;;;7.80;99.90;;;;;;5052971;28;20032;-73
2023/03/13 05:46:24;;;;;;;0.10;0.10;;;7.80;99.90;;;;;;5056940;28;20071;-72
2023/03/13 05:48:51;;;;;;;0.00;0.00;;;7.90;99.90;;;;;;5057058;28;20123;-73
2023/03/13 05:51:17;;;;;;;0.00;0.00;;;7.90;99.90;;;;;;5057454;28;20017;-72
2023/03/13 05:53:42;;;;;;;0.00;0.00;;;7.90;99.90;;;;;;5038905;28;20035;-72
2023/03/13 05:56:08;;;;;;;0.00;0.00;;;7.90;99.90;;;;;;5056662;28;20098;-72
2023/03/13 05:58:33;;;;;;;0.00;0.00;;;8.00;99.90;;;;;;5056801;28;20040;-73
2023/03/13 06:00:59;;;;;;;0.00;0.00;;;7.90;99.90;;;;;;5056784;28;20500;-73
2023/03/13 06:03:24;;;;;;;0.03;0.03;;;8.00;99.90;;;;;;5056692;28;20463;-73
2023/03/13 06:05:56;;;;;;;0.00;0.00;;;8.00;99.90;;;;;;5057092;28;20104;-73
2023/03/13 06:08:22;;;;;;;0.00;0.00;;;8.00;99.90;;;;;;5056903;28;20075;-73
2023/03/13 06:10:47;;;;;;;0.00;0.00;;;8.10;99.90;;;;;;5056544;28;20033;-73
2023/03/13 06:13:13;;;;;;;0.00;0.00;;;8.10;99.90;;;;;;5056464;28;20063;-73
2023/03/13 06:15:38;;;;;;;0.00;0.00;;;8.10;99.90;;;;;;5056494;28;20418;-73
2023/03/13 06:18:04;;;;;;;0.00;0.00;;;8.10;99.90;;;;;;5056443;28;20036;-73
2023/03/13 06:20:29;;;;;;;0.00;0.00;;;8.10;99.90;;;;;;5056407;28;20029;-73
2023/03/13 06:22:55;;;;;;;0.00;0.00;;;8.10;99.90;;;;;;5056309;28;20490;-73
2023/03/13 06:25:21;;;;;;;0.00;0.00;;;8.10;99.90;;;;;;5056260;28;20074;-73
2023/03/13 06:27:46;;;;;;;0.00;0.00;;;8.20;99.90;;;;;;5056514;28;20025;-73
2023/03/13 06:30:12;;;;;;;0.00;0.00;;;8.20;99.90;;;;;;5038350;28;20033;-73
2023/03/13 06:32:38;;;;;;;0.00;0.00;;;8.20;99.90;;;;;;5056152;28;20033;-73
2023/03/13 06:35:04;;;;;;;0.03;0.03;;;8.20;99.90;;;;;;5056066;28;20036;-73
2023/03/13 06:37:30;;;;;;;0.00;0.00;;;8.20;99.90;;;;;;5055949;28;20552;-73
2023/03/13 06:39:55;;;;;;;0.00;0.00;;;8.20;99.90;;;;;;5056587;28;20025;-73
2023/03/13 06:42:21;;;;;;;0.00;0.00;;;8.30;99.90;;;;;;5055934;28;20036;-73
2023/03/13 06:44:46;;;;;;;0.00;0.00;;;8.30;99.90;;;;;;5055947;28;20021;-73
2023/03/13 06:47:12;;;;;;;0.00;0.00;;;8.30;99.90;;;;;;5055883;28;20029;-73
2023/03/13 06:49:37;;;;;;;0.00;0.00;;;8.30;99.90;;;;;;5056024;28;20477;-73
2023/03/13 06:52:03;;;;;;;0.05;0.05;;;8.30;99.90;;;;;;5055802;28;20044;-73
2023/03/13 06:54:29;;;;;;;0.10;0.10;;;8.40;99.90;;;;;;5056192;28;20063;-73
2023/03/13 06:56:54;;;;;;;0.00;0.00;;;8.50;99.90;;;;;;5054612;28;20039;-73
2023/03/13 06:59:20;;;;;;;0.05;0.05;;;8.50;99.90;;;;;;5037780;28;20028;-73
2023/03/13 07:01:45;;;;;;;0.00;0.00;;;8.50;99.90;;;;;;5055618;28;20025;-73
2023/03/13 07:04:12;;;;;;;0.10;0.10;;;8.50;99.90;;;;;;5055839;28;20032;-73
2023/03/13 07:06:37;;;;;;;0.00;0.00;;;8.50;99.90;;;;;;5055458;28;20029;-73
2023/03/13 07:09:03;;;;;;;0.08;0.08;;;8.50;99.90;;;;;;5055795;28;20029;-74
2023/03/13 07:11:29;;;;;;;0.10;0.10;;;8.50;99.90;;;;;;5055728;28;20102;-73
2023/03/13 07:13:55;;;;;;;0.10;0.10;;;8.50;99.90;;;;;;5055312;28;20482;-74
2023/03/13 07:16:21;;;;;;;0.00;0.00;;;8.50;99.90;;;;;;5055315;28;20029;-74
2023/03/13 07:18:46;;;;;;;0.00;0.00;;;8.50;99.90;;;;;;5055866;28;20021;-74
2023/03/13 07:21:12;;;;;;;0.10;0.10;;;8.50;99.90;;;;;;5055269;28;20024;-73
2023/03/13 07:23:38;;;;;;;0.10;0.10;;;8.50;99.90;;;;;;5055246;28;20442;-74
2023/03/13 07:26:13;;;;;;;0.00;0.00;;;8.60;99.90;;;;;;5055163;28;20056;-74
2023/03/13 07:28:39;;;;;;;0.00;0.00;;;8.70;99.90;;;;;;5055740;28;20379;-73
2023/03/13 07:31:04;;;;;;;0.10;0.10;;;8.70;99.90;;;;;;5037178;28;20032;-73
2023/03/13 07:33:30;;;;;;;0.00;0.00;;;8.80;99.90;;;;;;5054965;28;20029;-73
2023/03/13 07:35:56;;;;;;;0.00;0.00;;;8.80;99.90;;;;;;5054953;28;20028;-73
2023/03/13 07:38:21;;;;;;;0.00;0.00;;;8.90;99.90;;;;;;5037131;28;20024;-74
2023/03/13 07:40:52;;;;;;;0.05;0.05;;;8.90;99.90;;;;;;5054942;28;20032;-74
2023/03/13 07:43:18;;;;;;;0.00;0.00;;;9.00;99.90;;;;;;5055314;28;20017;-74
2023/03/13 07:46:11;;;;;;;0.10;0.10;;;9.00;99.90;;;;;;5054758;28;20108;-73
2023/03/13 07:48:39;;;;;;;0.03;0.03;;;9.00;99.90;;;;;;5035107;28;20394;-73
2023/03/13 07:51:09;;;;;;;0.00;0.00;;;9.00;99.90;;;;;;5054738;28;20028;-73
2023/03/13 07:53:34;;;;;;;0.00;0.00;;;9.00;99.90;;;;;;5054533;28;20033;-73
2023/03/13 07:56:03;;;;;;;0.10;0.10;;;9.00;99.90;;;;;;5036537;28;20035;-73
2023/03/13 07:58:30;;;;;;;0.10;0.10;;;9.00;99.90;;;;;;5036548;28;20021;-73
2023/03/13 08:00:56;;;;;;;0.00;0.00;;;9.00;99.90;;;;;;5054533;28;20079;-73
2023/03/13 08:03:23;;;;;;;0.00;0.00;;;9.00;99.90;;;;;;5054713;28;20025;-73
2023/03/13 08:06:08;;;;;;;0.00;0.00;;;9.10;99.90;;;;;;5054584;28;20021;-73
2023/03/13 08:08:34;;;;;;;0.00;0.00;;;9.10;99.90;;;;;;5054382;28;20032;-73
2023/03/13 08:11:02;;;;;;;0.08;0.08;;;9.10;99.90;;;;;;5054320;28;20026;-73
2023/03/13 08:13:28;;;;;;;0.00;0.00;;;9.10;99.90;;;;;;5054202;28;20020;-73
2023/03/13 08:16:01;;;;;;;0.10;0.10;;;9.20;99.90;;;;;;5054420;28;20028;-74
2023/03/13 08:18:27;;;;;;;0.08;0.08;;;9.20;99.90;;;;;;5054409;28;20049;-74
2023/03/13 08:20:52;;;;;;;0.10;0.10;;;9.20;99.90;;;;;;5036200;28;20059;-74
2023/03/13 08:23:18;;;;;;;0.00;0.00;;;9.20;99.90;;;;;;5054098;28;20078;-74
2023/03/13 08:25:43;;;;;;;0.00;0.00;;;9.20;99.90;;;;;;5054044;28;20029;-74
2023/03/13 08:28:10;;;;;;;0.00;0.00;;;9.20;99.90;;;;;;5053986;28;20025;-73
2023/03/13 08:30:35;;;;;;;0.00;0.00;;;9.20;99.90;;;;;;5054211;28;20082;-73
2023/03/13 08:33:01;;;;;;;0.08;0.08;;;9.20;99.90;;;;;;5053846;28;20487;-73
2023/03/13 08:35:29;;;;;;;0.00;0.00;;;9.20;99.90;;;;;;5054251;28;20033;-73
2023/03/13 08:37:54;;;;;;;0.08;0.08;;;9.20;99.90;;;;;;5054074;28;20036;-73
2023/03/13 08:40:20;;;;;;;0.10;0.10;;;9.20;99.90;;;;;;5053806;28;20025;-73
2023/03/13 08:42:45;;;;;;;0.00;0.00;;;9.20;99.90;;;;;;5053710;28;20021;-73
2023/03/13 08:45:11;;;;;;;0.00;0.00;;;9.20;99.90;;;;;;5053599;28;20436;-73
2023/03/13 08:47:36;;;;;;;0.00;0.00;;;9.10;99.90;;;;;;5053896;28;20079;-73
2023/03/13 08:50:02;;;;;;;0.10;0.10;;;9.10;99.90;;;;;;5053592;28;20029;-73
2023/03/13 08:52:28;;;;;;;0.00;0.00;;;9.10;99.90;;;;;;5053690;28;20025;-73
2023/03/13 08:54:53;;;;;;;0.00;0.00;;;9.00;99.90;;;;;;5053446;28;20075;-73
2023/03/13 08:57:19;;;;;;;0.10;0.10;;;9.00;99.90;;;;;;5035466;28;20115;-73
2023/03/13 08:59:45;;;;;;;0.10;0.10;;;9.10;99.90;;;;;;5053702;28;20355;-73
2023/03/13 09:02:10;;;;;;;0.03;0.03;;;9.00;99.90;;;;;;5053381;28;20482;-73
2023/03/13 09:04:36;;;;;;;0.10;0.10;;;9.00;99.90;;;;;;5053884;28;20039;-72
2023/03/13 09:07:01;;;;;;;0.00;0.00;;;9.00;99.90;;;;;;5053798;28;20025;-73
2023/03/13 09:09:27;;;;;;;0.10;0.10;;;9.00;99.90;;;;;;5053244;28;20025;-73
2023/03/13 09:11:53;;;;;;;0.10;0.10;;;8.90;99.90;;;;;;5053278;28;20103;-73
2023/03/13 09:14:18;;;;;;;0.10;0.10;;;8.90;99.90;;;;;;5035288;28;20486;-73
2023/03/13 09:16:45;;;;;;;0.08;0.08;;;8.90;99.90;;;;;;5035323;28;20056;-73
2023/03/13 09:19:11;;;;;;;0.00;0.00;;;8.90;99.90;;;;;;5052736;28;20017;-73
2023/03/13 09:21:37;;;;;;;0.10;0.10;;;8.90;99.90;;;;;;5035247;28;20509;-74
2023/03/13 09:24:03;;;;;;;0.10;0.10;;;8.90;99.90;;;;;;5035400;28;20025;-73
2023/03/13 09:26:28;;;;;;;0.00;0.00;;;8.90;99.90;;;;;;5057428;28;20032;-73
2023/03/13 09:28:54;;;;;;;0.10;0.10;;;8.90;99.90;;;;;;5058141;28;20024;-73
2023/03/13 09:31:22;;;;;;;0.10;0.10;;;9.00;99.90;;;;;;5058584;28;20033;-73
2023/03/13 09:33:49;;;;;;;0.00;0.00;;;8.90;99.90;;;;;;5056088;28;20025;-73
2023/03/13 09:36:15;;;;;;;0.10;0.10;;;8.90;99.90;;;;;;5035040;28;20025;-73
2023/03/13 09:38:41;;;;;;;0.10;0.10;;;9.00;99.90;;;;;;5035054;28;20115;-73
2023/03/13 09:41:16;;;;;;;0.08;0.08;;;9.00;99.90;;;;;;5052933;28;20055;-73
2023/03/13 09:44:04;;;;;;;0.10;0.10;;;9.00;99.90;;;;;;5052811;28;20059;-73
2023/03/13 09:46:47;;;;;;;0.00;0.00;;;9.10;99.90;;;;;;5053464;28;20091;-73
2023/03/13 09:49:30;;;;;;;0.10;0.10;;;9.00;99.90;;;;;;5053149;28;20025;-74
2023/03/13 09:52:19;;;;;;;0.00;0.00;;;9.00;99.90;;;;;;5053760;28;20379;-74
2023/03/13 09:54:51;;;;;;;0.10;0.10;;;9.10;99.90;;;;;;5052760;28;20116;-74
2023/03/13 09:57:21;;;;;;;0.10;0.10;;;9.10;99.90;;;;;;5109504;22;20053;-73
2023/03/13 09:59:53;;;;;;;0.00;0.00;;;9.20;99.90;;;;;;5053045;28;20021;-74
2023/03/13 10:02:31;;;;;;;0.00;0.00;;;9.30;99.90;;;;;;5052871;28;20083;-74
2023/03/13 10:05:18;;;;;;;0.00;0.00;;;9.50;99.90;;;;;;5052705;28;20040;-74
2023/03/13 10:07:43;;;;;;;0.03;0.03;;;9.60;99.90;;;;;;5052914;28;20036;-74
2023/03/13 10:10:17;;;;;;;0.10;0.10;;;9.60;99.90;;;;;;5052647;28;20033;-74
2023/03/13 10:12:46;;;;;;;0.10;0.10;;;9.70;99.90;;;;;;5052939;28;20060;-74
2023/03/13 10:15:37;;;;;;;0.00;0.00;;;9.80;99.90;;;;;;5052595;28;20056;-74
2023/03/13 10:18:15;;;;;;;0.10;0.10;;;9.90;99.90;;;;;;5052848;28;20096;-74
2023/03/13 10:20:44;;;;;;;0.10;0.10;;;10.00;99.90;;;;;;5052751;28;20112;-74
2023/03/13 10:23:20;;;;;;;0.10;0.10;;;10.10;99.90;;;;;;5052368;28;20057;-74
2023/03/13 10:25:46;;;;;;;0.10;0.10;;;10.30;99.90;;;;;;5034552;28;20059;-75
2023/03/13 10:28:14;;;;;;;0.10;0.10;;;10.30;99.90;;;;;;5052484;28;20017;-75
2023/03/13 10:30:50;;;;;;;0.10;0.10;;;10.40;99.90;;;;;;5052468;28;20021;-75
2023/03/13 10:33:23;;;;;;;0.10;0.10;;;10.60;99.90;;;;;;5055627;28;20104;-75
2023/03/13 10:36:09;;;;;;;0.10;0.10;;;10.70;99.90;;;;;;5056344;28;20025;-75
2023/03/13 10:38:47;;;;;;;0.10;0.10;;;10.70;99.90;;;;;;5056409;28;20036;-74
2023/03/13 10:41:32;;;;;;;0.10;0.10;;;10.70;99.90;;;;;;5038205;28;20044;-74
2023/03/13 10:44:02;;;;;;;0.10;0.10;;;10.60;99.90;;;;;;5056235;28;20025;-74
2023/03/13 10:46:30;;;;;;;0.10;0.10;;;10.60;99.90;;;;;;5055848;28;20028;-75
2023/03/13 10:48:59;;;;;;;0.10;0.10;;;10.60;99.90;;;;;;5056422;28;20676;-75
2023/03/13 10:51:36;;;;;;;0.10;0.10;;;10.60;99.90;;;;;;5038233;28;20039;-75
2023/03/13 10:54:21;;;;;;;0.10;0.10;;;10.90;99.90;;;;;;5055822;28;20021;-74
2023/03/13 10:56:47;;;;;;;0.10;0.10;;;11.00;99.90;;;;;;5055694;28;20490;-75
2023/03/13 10:59:24;;;;;;;0.10;0.10;;;11.10;99.90;;;;;;5037834;28;20028;-75
2023/03/13 11:01:52;;;;;;;0.10;0.10;;;11.20;99.90;;;;;;5037770;28;20021;-75
2023/03/13 11:04:32;;;;;;;0.10;0.10;;;11.30;99.90;;;;;;5055593;28;20150;-75
2023/03/13 11:07:05;;;;;;;0.10;0.10;;;11.40;99.90;;;;;;5055504;28;20048;-76
2023/03/13 11:09:32;;;;;;;0.10;0.10;;;11.40;99.90;;;;;;5055640;28;20032;-76
2023/03/13 11:12:05;;;;;;;0.10;0.10;;;11.50;99.90;;;;;;5055459;28;20112;-76
2023/03/13 11:14:31;;;;;;;;;;;11.50;99.90;;;;;;5055904;28;20036;-76
2023/03/13 11:17:23;;;;;;;0.10;0.10;;;11.70;99.90;;;;;;5055241;28;20385;-77
2023/03/13 11:19:57;;;;;;;0.10;0.10;;;11.40;99.90;;;;;;5037462;28;20045;-76
2023/03/13 11:22:58;;;;;;;0.10;0.10;;;11.40;99.90;;;;;;5037414;28;20540;-76
2023/03/13 11:25:49;;;;;;;0.10;0.10;;;11.40;99.90;;;;;;5055184;28;20040;-77
2023/03/13 11:28:28;;;;;;;0.10;0.10;;;11.40;99.90;;;;;;5055475;28;20090;-77
2023/03/13 11:31:01;;;;;;;0.10;0.10;;;11.60;99.90;;;;;;5037180;28;20417;-77
2023/03/13 11:33:46;;;;;;;0.10;0.10;;;11.70;99.90;;;;;;5037137;28;20032;-77
2023/03/13 11:36:20;;;;;;;0.10;0.10;;;11.70;99.90;;;;;;5037089;28;20494;-78
2023/03/13 11:39:05;;;;;;;0.10;0.10;;;11.70;99.90;;;;;;5054941;28;20025;-77
2023/03/13 11:41:50;;;;;;;0.10;0.10;;;11.80;99.90;;;;;;5054935;28;20075;-77
2023/03/13 11:44:56;;;;;;;0.10;0.10;;;11.90;99.90;;;;;;5054725;28;20021;-77
2023/03/13 11:47:37;;;;;;;0.17;0.17;;;12.00;99.90;;;;;;5049098;28;20445;-77
2023/03/13 11:50:29;;;;;;;0.10;0.10;;;12.00;99.90;;;;;;5036864;28;20071;-77
2023/03/13 11:53:44;;;;;;;0.10;0.10;;;12.20;99.90;;;;;;5054694;28;20043;-77
2023/03/13 11:56:38;;;;;;;0.10;0.10;;;12.50;99.90;;;;;;5052120;28;20052;-77
2023/03/13 11:59:29;;;;;;;0.10;0.10;;;12.30;99.90;;;;;;5054606;28;20013;-77
2023/03/13 12:02:10;;;;;;;0.10;0.10;;;12.20;99.90;;;;;;5036657;28;20378;-77
2023/03/13 12:04:48;;;;;;;0.20;0.20;;;12.20;99.90;;;;;;5054481;28;20025;-77
2023/03/13 12:07:23;;;;;;;0.10;0.10;;;12.30;99.90;;;;;;5054593;28;20478;-77
2023/03/13 12:09:58;;;;;;;0.10;0.10;;;12.60;99.90;;;;;;5054613;28;20029;-77
2023/03/13 12:12:37;;;;;;;0.13;0.13;;;12.70;99.90;;;;;;5036447;28;20056;-77
2023/03/13 12:15:18;;;;;;;0.20;0.20;;;12.70;99.90;;;;;;5054210;28;20025;-77
2023/03/13 12:18:04;;;;;;;0.10;0.10;;;12.50;99.90;;;;;;5054433;28;20020;-77
2023/03/13 12:20:33;;;;;;;0.10;0.10;;;12.50;99.90;;;;;;5054182;28;20044;-77
2023/03/13 12:23:28;;;;;;;0.10;0.10;;;12.60;99.90;;;;;;5036247;28;20022;-77
2023/03/13 12:26:01;;;;;;;0.10;0.10;;;12.70;99.90;;;;;;5054631;28;20096;-76
2023/03/13 12:28:48;;;;;;;0.15;0.15;;;12.90;99.90;;;;;;5054318;28;20025;-77
2023/03/13 12:31:35;;;;;;;0.20;0.20;;;13.00;99.90;;;;;;5054440;28;20036;-77
2023/03/13 12:34:19;;;;;;;0.10;0.10;;;13.00;99.90;;;;;;5053878;28;20123;-77
2023/03/13 12:36:47;;;;;;;0.10;0.10;;;13.10;99.90;;;;;;5053825;28;20416;-77
2023/03/13 12:39:56;;;;;;;0.10;0.10;;;13.10;99.90;;;;;;5053809;28;20123;-77
2023/03/13 12:43:04;;;;;;;0.10;0.10;;;13.30;99.90;;;;;;5012154;28;20053;-77
2023/03/13 12:45:31;;;;;;;0.10;0.10;;;13.30;99.90;;;;;;4991439;28;20034;-77
2023/03/13 12:48:45;;;;;;;0.10;0.10;;;13.10;99.90;;;;;;5045235;28;20036;-77
2023/03/13 12:51:29;;;;;;;0.10;0.10;;;13.20;99.90;;;;;;5053798;28;20013;-77
2023/03/13 12:54:32;;;;;;;0.10;0.10;;;13.30;99.90;;;;;;5035261;28;20055;-77
2023/03/13 12:57:39;;;;;;;0.10;0.10;;;13.10;99.90;;;;;;5053271;28;20047;-77
2023/03/13 13:00:22;;;;;;;0.13;0.13;;;12.80;99.90;;;;;;5035626;28;20121;-77
2023/03/13 13:03:01;;;;;;;0.10;0.10;;;13.00;99.90;;;;;;5053422;28;20025;-77
2023/03/13 13:05:27;;;;;;;0.20;0.20;;;13.00;99.90;;;;;;5053343;28;20059;-77
2023/03/13 13:07:54;;;;;;;0.20;0.20;;;13.20;99.90;;;;;;5053235;28;20028;-76
2023/03/13 13:10:24;;;;;;;0.10;0.10;;;13.00;99.90;;;;;;5053280;28;20029;-76
2023/03/13 13:13:14;;;;;;;0.20;0.20;;;12.90;99.90;;;;;;5053583;28;20036;-76